»·PEaware :: N737TY KSBP-KSBA

N737TY :: KSBP-KSBA

FLIGHT INFORMATION

Flight Status: Arrived
Operator: Privately registered:
United States
More flights under this callsign
Pilot: Todd P. (5750)
Aircraft: CESSNA 172 SKYHAWK
(C172)
More flights by this aircraft type
Origin: KSBP San Luis Co Regl
United States
Destination: KSBA Santa Barbara Mun
United States
More flights between these airports :: More routes between these airports
Route: +MQO V27 GVO
File this flight plan on PilotEdge
Remarks:
Altitude:
(Current/Filed)
7,000ft
Speed:
(Current/Filed)
100kts
Departed: 31-May-15 07:50 AM
Arrived: 31-May-15 08:34 AM
Distance/Time
Traveled:
62nm/0:44
Distance/Time
To Go:
Arrived

Flight Plot

Page will automatically refresh every two minutes.


Map Options




Map Legend


Flown Route
Filed Route
Departure Airport
Arrival Airport
Navaid (VOR, NDB)
Fix

Horizontal Profiles

Position Reports

Time Latitude Longitude Heading Altitude Ground
Speed
31-May-15 07:33 35.238535 -120.639743 153 192ft 0kts
31-May-15 07:34 35.238535 -120.639743 153 192ft 0kts
31-May-15 07:35 35.238535 -120.639743 153 192ft 0kts
31-May-15 07:36 35.238535 -120.639743 153 192ft 0kts
31-May-15 07:37 35.238535 -120.639743 153 192ft 0kts
31-May-15 07:38 35.238535 -120.639743 153 192ft 0kts
31-May-15 07:39 35.238535 -120.639743 153 192ft 0kts
31-May-15 07:40 35.238535 -120.639743 153 192ft 0kts
31-May-15 07:41 35.238059 -120.639654 196 192ft 14kts
31-May-15 07:42 35.241525 -120.646346 304 166ft 32kts
31-May-15 07:43 35.242720 -120.648805 159 156ft 0kts
31-May-15 07:44 35.242720 -120.648805 159 156ft 0kts
31-May-15 07:45 35.242513 -120.648889 212 156ft 12kts
31-May-15 07:46 35.234885 -120.636096 123 729ft 65kts
31-May-15 07:47 35.220838 -120.638327 201 1630ft 63kts
31-May-15 07:48 35.206186 -120.645246 200 2328ft 73kts
31-May-15 07:49 35.186643 -120.646744 167 3213ft 76kts
31-May-15 07:50 35.166952 -120.641748 169 4093ft 72kts
31-May-15 07:51 35.146637 -120.637508 166 4882ft 76kts
31-May-15 07:52 35.126150 -120.633146 169 5638ft 79kts
31-May-15 07:53 35.106610 -120.622076 160 6375ft 81kts
31-May-15 07:54 35.088011 -120.606830 145 6994ft 96kts
31-May-15 07:55 35.063450 -120.587792 140 7018ft 100kts
31-May-15 07:56 35.042495 -120.566645 139 7076ft 100kts
31-May-15 07:57 35.019708 -120.543242 136 7003ft 108kts
31-May-15 07:58 34.996738 -120.518177 141 7014ft 107kts
31-May-15 07:59 34.971036 -120.496895 149 6959ft 110kts
31-May-15 08:00 34.945009 -120.476554 144 7004ft 105kts
31-May-15 08:01 34.917704 -120.463746 163 6951ft 118kts
31-May-15 08:02 34.894474 -120.438193 129 6976ft 110kts
31-May-15 08:03 34.875249 -120.409959 145 7086ft 105kts
31-May-15 08:04 34.851703 -120.386382 142 7075ft 109kts
31-May-15 08:05 34.826858 -120.364354 149 7106ft 104kts
31-May-15 08:06 34.802479 -120.342210 130 6970ft 115kts
31-May-15 08:07 34.780206 -120.317156 146 6978ft 112kts
31-May-15 08:08 34.754605 -120.299501 153 7105ft 105kts
31-May-15 08:09 34.731506 -120.274888 137 6941ft 112kts
31-May-15 08:10 34.707017 -120.254351 139 7033ft 103kts
31-May-15 08:11 34.683643 -120.232340 149 6961ft 112kts
31-May-15 08:12 34.660290 -120.209222 133 6998ft 104kts
31-May-15 08:13 34.635795 -120.188364 142 6992ft 104kts
31-May-15 08:14 34.613002 -120.166091 148 7049ft 104kts
31-May-15 08:15 34.586067 -120.154033 180 7006ft 110kts
31-May-15 08:16 34.551797 -120.153596 180 6322ft 126kts
31-May-15 08:17 34.516530 -120.153351 178 5041ft 130kts
31-May-15 08:18 34.482419 -120.152568 179 3975ft 113kts
31-May-15 08:19 34.451948 -120.151700 180 4001ft 112kts
31-May-15 08:20 34.421385 -120.147760 134 4045ft 107kts
31-May-15 08:21 34.425165 -120.113528 86 4053ft 99kts
31-May-15 08:22 34.421709 -120.080763 83 3778ft 100kts
31-May-15 08:23 34.423774 -120.045419 92 3042ft 111kts
31-May-15 08:24 34.422909 -120.008830 85 2513ft 104kts
31-May-15 08:25 34.424190 -119.974812 86 2100ft 96kts
31-May-15 08:26 34.425609 -119.942014 93 1410ft 94kts
31-May-15 08:27 34.425612 -119.912926 76 1046ft 77kts
31-May-15 08:28 34.427272 -119.888360 101 611ft 61kts
31-May-15 08:29 34.427162 -119.865856 87 301ft 74kts
31-May-15 08:30 34.427388 -119.847508 86 14ft 29kts
31-May-15 08:31 34.428770 -119.846199 139 14ft 0kts

Navigation Log

Ident Type
Flight plan parsing failed, navigation log unavailable